createdAt,value
2023-04-06T00:01:52.334Z,9.87
2023-04-06T00:04:18.720Z,9.70
2023-04-06T00:06:45.148Z,10.50
2023-04-06T00:09:11.532Z,11.50
2023-04-06T00:11:37.969Z,10.83
2023-04-06T00:50:41.145Z,11.25
2023-04-06T00:53:07.538Z,12.70
2023-04-06T00:55:33.967Z,12.23
2023-04-06T00:58:02.135Z,11.83
2023-04-06T01:00:28.550Z,11.57
2023-04-06T01:02:55.275Z,11.00
2023-04-06T01:05:21.799Z,11.33
2023-04-06T01:07:48.207Z,12.53
2023-04-06T01:10:25.639Z,11.97
2023-04-06T01:12:52.077Z,12.20
2023-04-06T01:15:18.646Z,12.63
2023-04-06T01:17:45.755Z,11.67
2023-04-06T01:20:12.506Z,11.23
2023-04-06T01:22:38.963Z,12.27
2023-04-06T01:25:05.944Z,11.43
2023-04-06T01:27:32.677Z,12.47
2023-04-06T01:29:59.163Z,12.23
2023-04-06T01:32:25.924Z,12.50
2023-04-06T01:34:52.445Z,11.27
2023-04-06T01:37:19.225Z,12.33
2023-04-06T01:39:45.680Z,12.77
2023-04-06T01:42:12.124Z,12.93
2023-04-06T01:44:38.573Z,13.13
2023-04-06T01:47:04.985Z,12.67
2023-04-06T01:49:31.361Z,12.57
2023-04-06T01:51:57.739Z,12.73
2023-04-06T01:54:24.102Z,12.47
2023-04-06T01:56:52.463Z,12.07
2023-04-06T01:59:18.890Z,11.90
2023-04-06T02:01:46.291Z,11.90
2023-04-06T02:04:14.548Z,12.50
2023-04-06T02:06:41.221Z,12.27
2023-04-06T02:09:07.928Z,12.83
2023-04-06T02:11:34.528Z,12.37
2023-04-06T02:14:01.978Z,11.97
2023-04-06T02:16:28.403Z,12.20
2023-04-06T02:18:54.858Z,12.03
2023-04-06T02:21:21.449Z,12.40
2023-04-06T02:23:48.494Z,11.50
2023-04-06T02:26:15.003Z,11.17
2023-04-06T02:28:41.505Z,11.87
2023-04-06T02:31:09.356Z,12.30
2023-04-06T02:33:35.963Z,12.60
2023-04-06T02:36:02.371Z,11.93
2023-04-06T02:38:28.888Z,11.97
2023-04-06T02:40:55.333Z,11.37
2023-04-06T02:43:21.731Z,11.70
2023-04-06T02:45:48.159Z,10.10
2023-04-06T02:48:15.035Z,11.13
2023-04-06T02:50:41.424Z,11.53
2023-04-06T02:53:07.824Z,11.03
2023-04-06T02:55:34.256Z,11.90
2023-04-06T02:58:01.017Z,11.23
2023-04-06T03:00:27.485Z,11.33
2023-04-06T03:02:53.962Z,10.57
2023-04-06T03:05:20.595Z,10.90
2023-04-06T03:07:47.038Z,10.17
2023-04-06T03:10:13.458Z,10.30
2023-04-06T03:12:39.939Z,11.10
2023-04-06T03:15:06.792Z,10.67
2023-04-06T03:17:33.288Z,10.93
2023-04-06T03:19:59.741Z,10.00
2023-04-06T03:22:26.275Z,9.93
2023-04-06T03:24:52.684Z,9.37
2023-04-06T03:27:19.094Z,11.13
2023-04-06T03:29:45.566Z,11.20
2023-04-06T03:32:11.992Z,10.50
2023-04-06T03:34:39.367Z,10.17
2023-04-06T03:37:10.213Z,10.13
2023-04-06T03:39:37.215Z,10.03
2023-04-06T03:42:03.667Z,10.70
2023-04-06T03:44:30.043Z,10.17
2023-04-06T03:46:56.502Z,10.50
2023-04-06T03:49:23.015Z,10.03
2023-04-06T03:51:49.472Z,10.53
2023-04-06T03:54:15.889Z,10.27
2023-04-06T03:56:42.660Z,10.67
2023-04-06T03:59:09.299Z,9.87
2023-04-06T04:01:35.983Z,10.80
2023-04-06T04:04:02.462Z,11.27
2023-04-06T04:06:28.877Z,11.43
2023-04-06T04:08:55.347Z,10.97
2023-04-06T04:11:21.851Z,11.10
2023-04-06T04:13:48.292Z,11.07
2023-04-06T04:16:14.669Z,12.60
2023-04-06T04:18:41.152Z,10.97
2023-04-06T04:21:07.559Z,11.03
2023-04-06T04:23:35.905Z,12.67
2023-04-06T04:26:03.528Z,11.57
2023-04-06T04:28:30.333Z,11.53
2023-04-06T04:30:56.973Z,11.83
2023-04-06T04:33:23.705Z,13.00
2023-04-06T04:35:50.314Z,11.50
2023-04-06T04:38:17.007Z,12.57
2023-04-06T04:40:43.451Z,11.50
2023-04-06T04:43:09.914Z,11.77
2023-04-06T04:45:36.408Z,12.40
2023-04-06T04:48:03.003Z,11.63
2023-04-06T04:50:29.764Z,11.93
2023-04-06T04:52:56.210Z,11.40
2023-04-06T04:55:22.662Z,12.63
2023-04-06T04:57:49.114Z,12.37
2023-04-06T05:00:15.932Z,12.70
2023-04-06T05:02:42.400Z,12.87
2023-04-06T05:05:09.284Z,12.90
2023-04-06T05:07:35.851Z,12.00
2023-04-06T05:10:02.240Z,12.23
2023-04-06T05:12:28.607Z,12.77
2023-04-06T05:14:55.324Z,12.83
2023-04-06T05:17:21.905Z,12.73
2023-04-06T05:19:48.321Z,12.67
2023-04-06T05:22:17.094Z,12.03
2023-04-06T05:24:43.597Z,11.70
2023-04-06T05:27:10.734Z,12.27
2023-04-06T05:29:37.176Z,12.93
2023-04-06T05:32:03.590Z,12.27
2023-04-06T05:34:30.047Z,11.73
2023-04-06T05:36:56.440Z,11.97
2023-04-06T05:39:22.913Z,12.07
2023-04-06T05:41:50.055Z,11.70
2023-04-06T05:44:16.450Z,12.03
2023-04-06T05:46:42.895Z,12.10
2023-04-06T05:49:09.661Z,12.03
2023-04-06T05:51:36.331Z,11.57
2023-04-06T05:54:02.810Z,11.70
2023-04-06T05:56:31.091Z,11.33
2023-04-06T05:58:57.588Z,11.33
2023-04-06T06:01:24.080Z,11.43
2023-04-06T06:03:50.671Z,11.50
2023-04-06T06:06:17.050Z,11.60
2023-04-06T06:08:43.482Z,10.77
2023-04-06T06:11:09.885Z,11.33
2023-04-06T06:13:36.319Z,11.20
2023-04-06T06:16:06.127Z,10.30
2023-04-06T06:18:33.256Z,11.00
2023-04-06T06:20:59.794Z,11.30
2023-04-06T06:23:26.196Z,10.53
2023-04-06T06:25:52.632Z,10.37
2023-04-06T06:28:19.028Z,10.30
2023-04-06T06:30:45.501Z,10.00
2023-04-06T06:33:11.957Z,10.03
2023-04-06T06:35:38.390Z,10.20
2023-04-06T06:38:05.080Z,10.03
2023-04-06T06:40:31.518Z,10.07
2023-04-06T06:42:57.998Z,9.80
2023-04-06T06:45:26.358Z,9.60
2023-04-06T06:47:55.101Z,9.47
2023-04-06T06:50:22.157Z,9.67
2023-04-06T06:52:48.612Z,8.90
2023-04-06T06:55:16.197Z,8.53
2023-04-06T06:57:43.381Z,8.60
2023-04-06T07:00:12.917Z,8.73
2023-04-06T07:02:40.007Z,7.80
2023-04-06T07:05:23.952Z,8.60
2023-04-06T07:07:54.141Z,8.00
2023-04-06T07:10:21.327Z,8.67
2023-04-06T07:12:47.774Z,8.23
2023-04-06T07:15:14.315Z,8.13
2023-04-06T07:17:42.437Z,7.90
2023-04-06T07:20:09.532Z,8.00
2023-04-06T07:22:36.183Z,8.20
2023-04-06T07:25:02.627Z,7.97
2023-04-06T07:27:29.014Z,7.80
2023-04-06T07:29:55.418Z,8.33
2023-04-06T07:32:21.973Z,7.83
2023-04-06T07:34:48.477Z,8.27
2023-04-06T07:37:14.919Z,7.83
2023-04-06T07:39:41.694Z,8.20
2023-04-06T07:42:08.162Z,8.13
2023-04-06T07:44:34.549Z,7.83
2023-04-06T07:47:01.552Z,8.07
2023-04-06T07:49:28.005Z,7.70
2023-04-06T07:51:55.026Z,8.13
2023-04-06T07:54:21.767Z,8.00
2023-04-06T07:56:48.270Z,7.50
2023-04-06T07:59:14.823Z,7.77
2023-04-06T08:01:41.278Z,7.50
2023-04-06T08:04:07.968Z,7.90
2023-04-06T08:06:35.275Z,8.20
2023-04-06T08:09:01.796Z,8.33
2023-04-06T08:11:28.363Z,8.43
2023-04-06T08:13:56.630Z,8.27
2023-04-06T08:16:23.320Z,7.80
2023-04-06T08:18:49.782Z,7.90
2023-04-06T08:21:16.332Z,8.57
2023-04-06T08:23:42.718Z,7.60
2023-04-06T08:26:09.382Z,7.60
2023-04-06T08:28:36.076Z,7.93
2023-04-06T08:31:09.050Z,8.17
2023-04-06T08:33:40.138Z,8.53
2023-04-06T08:36:14.313Z,8.20
2023-04-06T08:38:41.472Z,8.07
2023-04-06T08:41:12.300Z,7.80
2023-04-06T08:43:49.632Z,8.33
2023-04-06T08:46:16.532Z,7.97
2023-04-06T08:48:43.930Z,8.03
2023-04-06T08:51:10.914Z,7.87
2023-04-06T08:53:37.941Z,7.87
2023-04-06T08:56:05.231Z,7.70
2023-04-06T08:58:38.275Z,7.30
2023-04-06T09:01:09.051Z,7.30
2023-04-06T09:03:43.148Z,7.77
2023-04-06T09:06:10.553Z,7.57
2023-04-06T09:08:39.846Z,7.23
2023-04-06T09:11:06.463Z,7.43
2023-04-06T09:13:33.195Z,7.27
2023-04-06T09:16:03.837Z,7.33
2023-04-06T09:18:31.928Z,7.57
2023-04-06T09:21:02.957Z,7.20
2023-04-06T09:23:29.526Z,7.80
2023-04-06T09:26:12.821Z,7.17
2023-04-06T09:28:47.679Z,7.87
2023-04-06T09:31:15.872Z,7.20
2023-04-06T09:33:43.644Z,7.83
2023-04-06T09:36:10.905Z,7.67
2023-04-06T09:38:39.138Z,7.67
2023-04-06T09:41:05.831Z,8.37
2023-04-06T09:43:32.275Z,8.10
2023-04-06T09:46:00.380Z,8.07
2023-04-06T09:48:29.263Z,7.70
2023-04-06T09:51:00.612Z,7.37
2023-04-06T09:53:27.904Z,7.60
2023-04-06T09:55:58.753Z,8.13
2023-04-06T09:58:27.506Z,8.40
2023-04-06T10:01:02.905Z,8.23
2023-04-06T10:03:53.707Z,7.33
2023-04-06T10:06:23.137Z,8.07
2023-04-06T10:08:51.120Z,8.03
2023-04-06T10:11:17.773Z,8.37
2023-04-06T10:13:45.717Z,8.63
2023-04-06T10:16:14.367Z,7.77
2023-04-06T10:18:45.189Z,9.07
2023-04-06T10:21:13.563Z,9.10
2023-04-06T10:24:01.309Z,8.87
2023-04-06T10:26:28.381Z,8.73
2023-04-06T10:28:55.690Z,8.70
2023-04-06T10:31:29.161Z,8.33
2023-04-06T10:33:56.588Z,8.57
2023-04-06T10:36:26.520Z,9.30
2023-04-06T10:39:05.049Z,8.80
2023-04-06T10:41:45.771Z,9.10
2023-04-06T10:44:25.467Z,9.53
2023-04-06T10:47:01.326Z,9.80
2023-04-06T10:49:27.949Z,9.63
2023-04-06T10:51:55.368Z,8.97
2023-04-06T10:54:25.931Z,9.07
2023-04-06T10:56:52.486Z,10.60
2023-04-06T10:59:23.116Z,9.07
2023-04-06T11:01:50.054Z,9.13
2023-04-06T11:04:18.788Z,8.93
2023-04-06T11:06:49.714Z,8.87
2023-04-06T11:09:27.043Z,7.47
2023-04-06T11:11:53.533Z,9.40
2023-04-06T11:14:20.312Z,8.30
2023-04-06T11:16:49.003Z,9.63
2023-04-06T11:19:15.550Z,8.97
2023-04-06T11:21:49.686Z,9.47
2023-04-06T11:24:18.063Z,9.63
2023-04-06T11:26:52.173Z,9.60
2023-04-06T11:29:21.030Z,9.70
2023-04-06T11:31:49.369Z,9.40
2023-04-06T11:34:20.906Z,8.67
2023-04-06T11:36:49.218Z,9.47
2023-04-06T11:39:21.138Z,8.90
2023-04-06T11:42:09.546Z,8.73
2023-04-06T11:44:41.320Z,9.03
2023-04-06T11:47:09.118Z,8.53
2023-04-06T11:49:38.592Z,9.07
2023-04-06T11:52:23.142Z,9.13
2023-04-06T11:54:50.790Z,8.93
2023-04-06T11:57:18.773Z,8.87
2023-04-06T11:59:45.702Z,8.30
2023-04-06T12:02:12.350Z,9.37
2023-04-06T12:04:38.998Z,8.53
2023-04-06T12:07:05.956Z,9.57
2023-04-06T12:09:32.784Z,8.90
2023-04-06T12:11:59.257Z,9.77
2023-04-06T12:14:25.976Z,8.60
2023-04-06T12:16:52.535Z,8.67
2023-04-06T12:19:19.104Z,9.97
2023-04-06T12:21:45.530Z,9.33
2023-04-06T12:24:11.941Z,9.80
2023-04-06T12:26:38.493Z,9.27
2023-04-06T12:29:08.399Z,8.53
2023-04-06T12:31:41.937Z,8.57
2023-04-06T12:34:08.688Z,9.00
2023-04-06T12:36:35.590Z,8.00
2023-04-06T12:39:02.361Z,9.57
2023-04-06T12:41:30.751Z,8.80
2023-04-06T12:43:57.265Z,9.87
2023-04-06T12:46:24.261Z,9.07
2023-04-06T12:48:54.499Z,8.33
2023-04-06T12:51:21.161Z,9.60
2023-04-06T12:53:47.722Z,10.20
2023-04-06T12:56:16.755Z,9.27
2023-04-06T12:58:43.353Z,9.17
2023-04-06T13:01:10.574Z,9.53
2023-04-06T13:03:37.212Z,9.60
2023-04-06T13:06:03.995Z,9.47
2023-04-06T13:08:30.549Z,9.87
2023-04-06T13:10:58.518Z,9.23
2023-04-06T13:13:26.654Z,8.90
2023-04-06T13:15:54.133Z,8.87
2023-04-06T13:18:20.993Z,8.53
2023-04-06T13:20:48.687Z,9.23
2023-04-06T13:23:15.634Z,9.23
2023-04-06T13:25:42.164Z,9.80
2023-04-06T13:28:09.578Z,10.00
2023-04-06T13:30:36.431Z,9.73
2023-04-06T13:33:03.501Z,9.00
2023-04-06T13:35:29.985Z,9.27
2023-04-06T13:37:56.470Z,8.17
2023-04-06T13:40:23.128Z,8.73
2023-04-06T13:42:49.528Z,8.93
2023-04-06T13:45:16.169Z,8.27
2023-04-06T13:47:42.629Z,9.37
2023-04-06T13:50:09.360Z,8.87
2023-04-06T13:52:37.049Z,9.60
2023-04-06T13:55:03.532Z,10.03
2023-04-06T13:57:30.976Z,10.17
2023-04-06T13:59:57.431Z,9.93
2023-04-06T14:02:28.239Z,9.40
2023-04-06T14:04:55.570Z,11.30
2023-04-06T14:07:22.863Z,10.03
2023-04-06T14:09:50.597Z,9.97
2023-04-06T14:12:17.014Z,16.77
2023-04-06T14:14:43.437Z,9.13
2023-04-06T14:19:37.123Z,9.40
2023-04-06T14:22:03.586Z,9.47
2023-04-06T14:24:30.504Z,8.40
2023-04-06T14:26:57.687Z,9.67
2023-04-06T14:29:24.214Z,8.23
2023-04-06T14:31:50.602Z,8.57
2023-04-06T14:34:17.861Z,8.80
2023-04-06T14:36:44.309Z,9.50
2023-04-06T14:39:11.237Z,8.60
2023-04-06T14:41:37.822Z,8.63
2023-04-06T14:44:04.714Z,8.70
2023-04-06T14:46:31.446Z,9.60
2023-04-06T14:48:59.855Z,9.20
2023-04-06T14:51:28.385Z,9.70
2023-04-06T14:53:55.366Z,9.67
2023-04-06T14:56:23.155Z,8.20
2023-04-06T14:58:51.693Z,6.07
2023-04-06T15:01:21.001Z,8.40
2023-04-06T15:03:50.046Z,9.20
2023-04-06T15:06:18.623Z,9.73
2023-04-06T15:08:45.477Z,9.10
2023-04-06T15:11:13.041Z,8.40
2023-04-06T15:13:40.819Z,9.00
2023-04-06T15:16:07.664Z,8.50
2023-04-06T15:18:34.885Z,8.63
2023-04-06T15:21:01.359Z,8.50
2023-04-06T15:23:30.692Z,9.83
2023-04-06T15:26:00.259Z,10.00
2023-04-06T15:28:29.526Z,10.00
2023-04-06T15:30:56.690Z,10.40
2023-04-06T15:33:23.950Z,10.07
2023-04-06T15:50:34.406Z,9.90
2023-04-06T15:53:01.049Z,10.23
2023-04-06T15:55:27.464Z,9.97
2023-04-06T15:57:54.170Z,10.10
2023-04-06T16:00:21.245Z,9.70
2023-04-06T16:02:48.206Z,10.00
2023-04-06T16:05:14.879Z,10.17
2023-04-06T16:07:41.979Z,10.30
2023-04-06T16:10:09.179Z,10.23
2023-04-06T16:12:35.672Z,10.30
2023-04-06T16:15:02.094Z,10.37
2023-04-06T16:17:28.627Z,9.73
2023-04-06T16:19:55.108Z,9.70
2023-04-06T16:22:21.680Z,10.43
2023-04-06T16:24:48.076Z,10.07
2023-04-06T16:27:14.619Z,10.47
2023-04-06T16:29:41.081Z,10.30
2023-04-06T16:32:07.745Z,9.83
2023-04-06T16:34:34.438Z,9.57
2023-04-06T16:37:01.677Z,10.27
2023-04-06T16:39:28.473Z,9.77
2023-04-06T16:41:54.945Z,9.83
2023-04-06T16:44:21.619Z,10.23
2023-04-06T16:46:48.181Z,10.67
2023-04-06T16:49:14.805Z,10.13
2023-04-06T16:51:41.746Z,10.60
2023-04-06T16:54:08.771Z,9.93
2023-04-06T16:56:35.177Z,9.27
2023-04-06T16:59:01.615Z,9.93
2023-04-06T17:01:29.138Z,9.27
2023-04-06T17:03:56.657Z,11.00
2023-04-06T17:06:23.395Z,10.63
2023-04-06T17:08:51.412Z,11.13
2023-04-06T17:11:20.319Z,10.30
2023-04-06T17:13:50.720Z,10.63
2023-04-06T17:16:18.174Z,11.83
2023-04-06T17:18:44.722Z,11.30
2023-04-06T17:21:14.289Z,9.67
2023-04-06T17:23:41.518Z,10.73
2023-04-06T17:26:08.293Z,9.87
2023-04-06T17:28:34.722Z,10.40
2023-04-06T17:31:01.609Z,10.10
2023-04-06T17:33:28.413Z,9.63
2023-04-06T17:35:54.903Z,10.07
2023-04-06T17:38:21.456Z,9.90
2023-04-06T17:40:48.568Z,9.77
2023-04-06T17:43:14.990Z,10.20
2023-04-06T17:45:41.445Z,9.10
2023-04-06T17:48:08.029Z,9.63
2023-04-06T17:50:38.909Z,10.20
2023-04-06T17:53:05.629Z,10.10
2023-04-06T17:55:32.023Z,8.80
2023-04-06T17:57:58.506Z,9.77
2023-04-06T18:00:25.659Z,10.40
2023-04-06T18:02:52.236Z,11.27
2023-04-06T18:05:19.611Z,9.80
2023-04-06T18:07:46.144Z,9.53
2023-04-06T18:10:12.870Z,10.63
2023-04-06T18:12:39.304Z,12.20
2023-04-06T18:15:06.561Z,9.13
2023-04-06T18:17:33.019Z,10.30
2023-04-06T18:19:59.591Z,10.00
2023-04-06T18:22:26.026Z,16.37
2023-04-06T18:24:52.426Z,23.97
2023-04-06T18:27:21.121Z,13.40
2023-04-06T18:29:48.014Z,18.07
2023-04-06T18:32:18.195Z,17.43
2023-04-06T18:34:45.550Z,13.60
2023-04-06T18:37:12.659Z,12.70
2023-04-06T18:39:39.157Z,13.33
2023-04-06T18:42:05.844Z,12.00
2023-04-06T18:44:32.340Z,12.20
2023-04-06T18:46:59.278Z,10.67
2023-04-06T18:49:26.098Z,10.83
2023-04-06T18:51:53.650Z,11.47
2023-04-06T18:54:20.480Z,10.70
2023-04-06T18:56:47.170Z,11.47
2023-04-06T18:59:14.027Z,11.37
2023-04-06T19:01:43.684Z,15.10
2023-04-06T19:04:11.478Z,13.20
2023-04-06T19:06:38.158Z,12.20
2023-04-06T19:09:05.008Z,13.87
2023-04-06T19:13:58.915Z,15.13
2023-04-06T19:16:27.432Z,16.20
2023-04-06T19:18:54.117Z,11.17
2023-04-06T19:21:22.463Z,11.90
2023-04-06T19:23:50.919Z,9.80
2023-04-06T19:26:18.737Z,10.83
2023-04-06T19:28:46.117Z,10.40
2023-04-06T19:31:14.479Z,9.60
2023-04-06T19:33:40.948Z,11.17
2023-04-06T19:36:08.175Z,11.53
2023-04-06T19:38:34.992Z,11.53
2023-04-06T19:41:01.623Z,10.67
2023-04-06T19:43:28.217Z,10.33
2023-04-06T19:45:54.694Z,10.60
2023-04-06T19:48:21.180Z,25.13
2023-04-06T19:50:47.776Z,15.50
2023-04-06T19:53:14.379Z,12.30
2023-04-06T19:55:40.843Z,11.17
2023-04-06T19:58:07.524Z,13.10
2023-04-06T20:00:33.908Z,13.00
2023-04-06T20:03:00.479Z,14.13
2023-04-06T20:05:27.022Z,14.90
2023-04-06T20:07:53.524Z,13.40
2023-04-06T20:10:20.064Z,20.57
2023-04-06T20:12:46.600Z,15.70
2023-04-06T20:15:13.263Z,13.93
2023-04-06T20:17:39.705Z,23.20
2023-04-06T20:20:06.957Z,15.80
2023-04-06T20:22:33.346Z,10.87
2023-04-06T20:25:00.059Z,18.60
2023-04-06T20:27:26.504Z,17.10
2023-04-06T20:29:52.932Z,13.57
2023-04-06T20:32:22.107Z,13.87
2023-04-06T20:34:48.864Z,13.77
2023-04-06T20:37:16.577Z,15.67
2023-04-06T20:39:43.236Z,11.30
2023-04-06T20:42:10.031Z,20.97
2023-04-06T20:44:36.606Z,10.67
2023-04-06T20:47:04.161Z,9.10
2023-04-06T20:49:30.607Z,9.20
2023-04-06T20:51:57.191Z,11.90
2023-04-06T20:54:23.695Z,9.37
2023-04-06T20:56:50.158Z,9.03
2023-04-06T20:59:16.545Z,9.30
2023-04-06T21:01:43.250Z,9.37
2023-04-06T21:04:09.827Z,8.40
2023-04-06T21:06:36.607Z,8.90
2023-04-06T21:09:03.366Z,9.83
2023-04-06T21:11:30.073Z,9.50
2023-04-06T21:13:56.550Z,9.83
2023-04-06T21:16:23.144Z,9.30
2023-04-06T21:18:49.631Z,9.37
2023-04-06T21:21:23.280Z,9.70
2023-04-06T21:23:53.017Z,10.53
2023-04-06T21:26:19.375Z,9.50
2023-04-06T21:28:46.838Z,8.80
2023-04-06T21:31:16.353Z,9.43
2023-04-06T21:33:42.814Z,9.50
2023-04-06T21:36:09.375Z,8.70
2023-04-06T21:38:35.785Z,8.97
2023-04-06T21:41:02.283Z,8.73
2023-04-06T21:43:28.749Z,9.03
2023-04-06T21:45:55.199Z,8.93
2023-04-06T21:48:21.712Z,9.40
2023-04-06T21:50:48.097Z,9.90
2023-04-06T21:53:14.492Z,9.50
2023-04-06T21:55:47.513Z,8.80
2023-04-06T21:58:14.588Z,9.00
2023-04-06T22:00:41.100Z,9.77
2023-04-06T22:03:07.979Z,9.60
2023-04-06T22:05:37.142Z,9.70
2023-04-06T22:08:03.676Z,9.67
2023-04-06T22:10:30.434Z,8.97
2023-04-06T22:12:57.179Z,9.37
2023-04-06T22:15:23.581Z,10.23
2023-04-06T22:17:50.120Z,9.63
2023-04-06T22:20:17.223Z,8.63
2023-04-06T22:22:43.792Z,9.83
2023-04-06T22:25:10.419Z,9.70
2023-04-06T22:27:36.850Z,10.63
2023-04-06T22:30:04.429Z,11.13
2023-04-06T22:32:30.921Z,11.40
2023-04-06T22:34:57.338Z,10.83
2023-04-06T22:37:23.882Z,9.50
2023-04-06T22:39:50.313Z,10.10
2023-04-06T22:42:16.696Z,10.07
2023-04-06T22:44:43.196Z,10.47
2023-04-06T22:47:09.789Z,10.03
2023-04-06T22:49:36.210Z,10.20
2023-04-06T22:52:02.883Z,10.17
2023-04-06T22:54:29.346Z,9.50
2023-04-06T22:56:56.634Z,10.43
2023-04-06T22:59:23.389Z,10.47
2023-04-06T23:01:49.931Z,10.60
2023-04-06T23:04:16.974Z,10.33
2023-04-06T23:06:44.267Z,10.37
2023-04-06T23:09:10.729Z,10.30
2023-04-06T23:11:37.090Z,10.13
2023-04-06T23:14:03.502Z,10.27
2023-04-06T23:16:29.905Z,10.43
2023-04-06T23:18:56.655Z,10.50
2023-04-06T23:21:23.076Z,10.63
2023-04-06T23:23:49.488Z,11.07
2023-04-06T23:26:16.175Z,10.23
2023-04-06T23:28:42.599Z,10.33
2023-04-06T23:31:09.113Z,10.33
2023-04-06T23:33:35.683Z,11.03
2023-04-06T23:36:02.110Z,11.27
2023-04-06T23:38:28.603Z,10.20
2023-04-06T23:40:55.053Z,11.23
2023-04-06T23:43:21.472Z,10.47
2023-04-06T23:45:47.947Z,10.20
2023-04-06T23:48:14.328Z,10.50
2023-04-06T23:50:41.401Z,10.57
2023-04-06T23:53:07.865Z,10.80
2023-04-06T23:55:34.347Z,10.73
2023-04-06T23:58:01.829Z,10.70
